Logo AVAMET
Benvolgut visitant, si us plau, ingressa Recuperar contrasenya

Bolulla

Dades diàries. Acumulats / Últims 30 dies disponibles

Data Temperatura (°C) Humitat rel. (%) Pressió rel. (hPa) Vent (km/h) Precipitació
Mínima Mitjana Màxima Amplitud
tèrmica
Mínima Mitjana Màxima Mínima Mitjana Màxima Predom. Mitjana Ràfega
màxima
Total
(mm)
Índex-n
Mínima Mitjana Màxima Mínima Mitjana Màxima n
0 a 1
P0 max
mm 5'
Dades mensuals acumulades fins l'últim dia disponible
11/2019 9,3 13,4 17,7 16,7 14,9 20,6 25,9 16,6 36 53 83 0 982 987   12,0 81,4 1,5
Dades anuals acumulades fins l'últim dia disponible
2019 3,2 13,8 26,4 17,9 10,7 22,5 38,4 35,2 6 66 99 0 994 1.032   8,2 81,4 402,1
Últims 30 dies disponibles
11-11-2019 9,3     12,5     15,5 6,2 41 50 60 987 987 987 OSO 10,1 45,0 0,0
10-11-2019 9,8     12,8     15,2 5,4 41 55 78 0 973 987 NO 17,0 59,4 1,5
09-11-2019 11,3     14,5     17,7 6,4 36 46 66 987 987 987 O 13,1 52,5 0,0
08-11-2019 10,7     13,0     14,9 4,2 40 47 59 0 973 987 NO 17,7 59,9 0,0
07-11-2019 11,7     13,2     23,9 12,2 40 43 47 987 987 987 ONO 7,9 67,2 0,0
04-11-2019 15,8     20,4     23,9 8,1 43 57 65 0 982 987 OSO 11,5 67,2 0,0
03-11-2019 17,3     20,0     23,3 6,0 47 56 72 0 980 987 O 9,2 52,5 0,0
02-11-2019 17,7     21,9     24,9 7,2 46 57 70 987 987 987 O 12,6 81,4 0,0
01-11-2019 17,4     22,3     25,9 8,5 49 63 83 0 983 987 O 8,5 52,2 0,0
31-10-2019 17,2     21,9     24,8 7,6 50 61 80 0 983 987 NO 11,2 42,6 0,0
30-10-2019 13,9     17,8     22,3 8,4 57 85 94 987 987 987 O 5,9 25,9 0,0
29-10-2019 14,1     17,6     22,9 8,8 64 80 90 0 980 987 O 6,1 15,5 0,0
28-10-2019 13,1     16,1     20,4 7,3 71 87 94 0 976 987 O 6,5 22,2 0,0
27-10-2019 12,5     16,3     21,1 8,6 61 83 95 987 987 987 O 7,0 20,4 0,0
26-10-2019 12,4     16,3     21,1 8,7 61 78 95 0 983 987 O 6,8 18,5 0,0
25-10-2019 12,3     16,9     20,8 8,5 51 67 84 0 983 987 OSO 7,7 33,3 0,0
24-10-2019 9,4     14,6     19,1 9,7 53 67 87 0 976 987 ONO 9,0 42,6 0,0
23-10-2019 10,2     13,1     17,1 6,9 60 76 96 0 973 987 OSO 8,0 40,7 8,1 0,45 2,30
22-10-2019 11,6     13,9     15,8 4,2 66 85 96 0 983 987 OSO 8,9 70,3 38,8 0,59 0,90
21-10-2019 12,2     14,3     15,8 3,6 57 80 94 0 983 987 OSO 4,6 24,4 8,6
20-10-2019 15,4     18,5     22,8 7,4 45 71 93 0 980 987 O 6,4 53,7 0,0
19-10-2019 14,6     19,1     24,3 9,7 46 69 92 987 987 987 OSO 7,2 25,9 0,0
18-10-2019 16,8     20,2     25,2 8,4 48 62 74 0 976 987 O 7,4 24,1 0,0
17-10-2019 13,6     18,5     24,4 10,8 34 60 82 0 980 987 O 7,8 24,1 0,0
16-10-2019 11,9     16,7     22,4 10,5 39 59 82 0 973 987 O 8,7 31,5 0,0
15-10-2019 13,7     18,0     21,7 8,0 29 47 62 0 983 987 O 13,2 67,2 0,0
14-10-2019 17,1     20,6     24,9 7,8 49 84 93 0 979 987 SO 6,6 52,2 3,8
11-10-2019 17,1     20,8     24,9 7,8 66 82 92 987 987 987 O 6,4 20,9 0,0
10-10-2019 17,1     20,7     25,1 8,0 63 82 92 0 980 987 O 6,1 20,4 0,0
09-10-2019 16,5     20,0     24,7 8,2 67 83 93 0 983 987 O 7,7 20,4 0,0
Últims 13 mesos disponibles
10/2019 9,4 14,7 17,6 18,6 15,8 23,1 27,9 18,5 47 73 87 973 982 987 O 7,6 70,3 59,3
09/2019 13,7 18,8 22,8 22,2 21,4 26,5 30,6 16,9 61 78 89 968 981 987 OSO 7,4 59,9 212,8
07/2019 19,4 21,6 26,4 26,2 25,0 31,2 38,4 19,0 37 60 80 966 982 987 OSO 8,0 46,3 0,2
06/2019 13,6 17,0 23,4 22,3 22,2 27,7 36,3 22,7 39 58 79 973 982 987 OSO 8,3 42,6 0,5
05/2019 9,8 13,2 18,7 17,4 18,0 22,1 26,9 17,1 56 70 84 962 984 1.001 OSO 8,1 54,2 7,1
04/2019 7,4 10,7 14,2 14,5 14,1 18,5 26,2 18,8 43 70 91 978 995 1.001 OSO 8,3 79,6
03/2019 6,8 9,0 12,2 13,4 12,2 18,0 26,4 19,6 40 61 85 991 1.014 1.028 O 8,2 56,1 44,0
02/2019 4,1 7,2 10,7 11,7 11,8 16,5 20,7 16,6 39 62 80 996 1.023 1.031 O 8,4 72,9 0,3
01/2019 3,2 7,1 11,3 10,5 10,7 14,9 19,7 16,5 43 64 85 1.003 1.017 1.029 ONO 8,7 75,9 15,7
12/2018 6,4 8,8 11,8 12,4 12,4 17,3 21,2 14,8 51 72 89 1.008 1.023 1.030 ONO 7,0 68,5 43,1
11/2018 7,5 11,0 16,9 14,0 13,4 17,6 21,8 14,3 56 73 89 999 1.014 1.021 O 7,5 63,3 146,0
10/2018 8,2 14,6 18,0 17,8 14,6 21,9 26,2 18,0 47 74 84 998 1.013 1.024 7,8 70,3 107,8
09/2018 14,6 19,9 22,8 23,2 23,6 27,5 31,3 16,7 65 77 86 1.011 1.018 1.026 7,3 48,1 102,1
Tots els anys disponibles
2018 2,8 13,6 27,2 17,3 7,4 21,5 35,3 32,5 41 69 90 984 1.013 1.032 OSO 8,0 85,1 705,8
2017 3,8 14,1 26,7 18,4 8,4 22,9 34,6 30,8 41 68 89 998 1.017 1.033 OSO 2,6 96,0 223,0
2016
Temperatura (°C)
Humitat relativa (%)
Velocitat del vent i ràfega màxima (km/h)
Direcció del vent (°)
Pressió (hPa)
Precipitació (mm)
Nota sobre les dades: s'avisa a l'usuari de la provisionalitat i no oficialitat d'aquestes dades
Logo AVAMET blanc
Web allotjada a Sollutia
Llicència de Creative CommonsLa web d'AVAMET i els seus continguts estan subjectes a una llicència de
Reconeixement - No Comercial - Compartir igual
Últimes estacions: Xàbia - Alt de la Granadella (Soci), Villena - Sierra de Salinas (Soci), Sueca - Centre (Inforatge), Xàbia - La Plana (Soci), Banyeres de Mariola - Molí Sol (Soci), Villena - Villa Ventín (Soci), Benissa - Convent (Soci), - - -